createdAt,value
2019-04-21T00:00:17.150Z,14.54
2019-04-21T00:01:14.231Z,14.55
2019-04-21T00:02:18.624Z,14.50
2019-04-21T00:03:18.175Z,14.55
2019-04-21T00:04:25.692Z,14.50
2019-04-21T00:05:38.559Z,14.51
2019-04-21T00:06:32.405Z,14.57
2019-04-21T00:07:31.370Z,14.50
2019-04-21T00:09:33.636Z,14.47
2019-04-21T00:10:38.489Z,14.45
2019-04-21T00:12:28.325Z,14.39
2019-04-21T00:13:29.504Z,14.32
2019-04-21T00:14:22.158Z,14.43
2019-04-21T00:15:20.441Z,14.27
2019-04-21T00:16:16.110Z,14.22
2019-04-21T00:17:17.523Z,14.21
2019-04-21T00:18:14.353Z,14.28
2019-04-21T00:19:18.165Z,14.22
2019-04-21T00:20:23.840Z,14.14
2019-04-21T00:21:25.526Z,14.15
2019-04-21T00:22:23.272Z,14.15
2019-04-21T00:23:31.277Z,14.22
2019-04-21T00:24:25.052Z,14.04
2019-04-21T00:25:27.572Z,14.10
2019-04-21T00:28:37.832Z,14.04
2019-04-21T00:29:34.056Z,14.02
2019-04-21T00:30:34.261Z,14.10
2019-04-21T00:31:32.254Z,13.95
2019-04-21T00:32:25.688Z,14.02
2019-04-21T00:34:13.339Z,14.02
2019-04-21T00:35:18.777Z,14.00
2019-04-21T00:36:18.552Z,14.04
2019-04-21T00:37:25.066Z,13.92
2019-04-21T00:38:35.882Z,13.92
2019-04-21T00:39:43.322Z,13.91
2019-04-21T00:40:36.967Z,13.91
2019-04-21T00:41:38.076Z,13.88
2019-04-21T00:42:30.368Z,13.91
2019-04-21T00:43:28.423Z,13.88
2019-04-21T00:44:24.486Z,13.88
2019-04-21T00:45:29.141Z,13.85
2019-04-21T00:46:32.333Z,13.85
2019-04-21T00:47:34.031Z,13.85
2019-04-21T00:48:34.775Z,13.79
2019-04-21T00:49:27.114Z,13.79
2019-04-21T00:50:41.932Z,13.81
2019-04-21T00:51:39.803Z,13.75
2019-04-21T00:52:46.059Z,13.75
2019-04-21T00:53:43.832Z,13.75
2019-04-21T00:54:44.125Z,13.69
2019-04-21T00:55:42.521Z,13.70
2019-04-21T00:56:36.607Z,13.71
2019-04-21T00:57:41.263Z,13.70
2019-04-21T00:58:39.033Z,13.67
2019-04-21T00:59:37.065Z,13.71
2019-04-21T01:00:33.802Z,13.73
2019-04-21T01:01:32.891Z,13.69
2019-04-21T01:02:43.136Z,13.75
2019-04-21T01:03:43.274Z,13.63
2019-04-21T01:04:39.994Z,13.67
2019-04-21T01:06:35.156Z,13.62
2019-04-21T01:07:37.133Z,13.55
2019-04-21T01:08:35.705Z,13.49
2019-04-21T01:09:29.069Z,13.48
2019-04-21T01:10:24.155Z,13.45
2019-04-21T01:11:33.251Z,13.41
2019-04-21T01:12:37.371Z,13.46
2019-04-21T01:13:51.984Z,13.39
2019-04-21T01:14:45.519Z,13.39
2019-04-21T01:15:39.880Z,13.41
2019-04-21T01:16:39.803Z,13.41
2019-04-21T01:17:35.244Z,13.36
2019-04-21T01:18:33.772Z,13.36
2019-04-21T01:19:33.201Z,13.26
2019-04-21T01:20:17.768Z,13.36
2019-04-21T01:21:14.541Z,13.32
2019-04-21T01:22:13.545Z,13.29
2019-04-21T01:23:14.620Z,13.22
2019-04-21T01:24:19.707Z,13.20
2019-04-21T01:25:24.187Z,13.23
2019-04-21T01:26:28.617Z,13.12
2019-04-21T01:27:26.326Z,13.14
2019-04-21T01:28:29.258Z,13.07
2019-04-21T01:29:39.127Z,13.12
2019-04-21T01:30:35.805Z,13.14
2019-04-21T01:31:28.276Z,13.04
2019-04-21T01:32:34.429Z,13.04
2019-04-21T01:33:38.528Z,13.08
2019-04-21T01:34:33.190Z,13.04
2019-04-21T01:35:38.174Z,12.93
2019-04-21T01:36:33.334Z,13.01
2019-04-21T01:37:42.439Z,12.95
2019-04-21T01:38:40.329Z,12.92
2019-04-21T01:39:42.858Z,13.00
2019-04-21T01:40:37.656Z,12.95
2019-04-21T01:41:42.977Z,12.92
2019-04-21T01:42:32.746Z,12.92
2019-04-21T01:43:33.420Z,12.86
2019-04-21T01:44:40.375Z,12.90
2019-04-21T01:45:31.857Z,12.95
2019-04-21T01:46:29.640Z,12.86
2019-04-21T01:47:31.180Z,12.74
2019-04-21T01:48:32.900Z,12.72
2019-04-21T01:49:26.398Z,12.83
2019-04-21T01:50:31.267Z,12.78
2019-04-21T01:51:31.087Z,12.79
2019-04-21T01:53:39.463Z,12.75
2019-04-21T01:54:39.310Z,12.77
2019-04-21T01:55:35.630Z,12.74
2019-04-21T01:56:34.280Z,12.79
2019-04-21T01:57:31.674Z,12.82
2019-04-21T01:58:25.705Z,12.83
2019-04-21T01:59:27.093Z,12.78
2019-04-21T02:00:32.813Z,12.78
2019-04-21T02:01:35.315Z,12.77
2019-04-21T02:02:41.479Z,12.83
2019-04-21T02:04:41.526Z,12.78
2019-04-21T02:05:36.368Z,12.78
2019-04-21T02:06:33.772Z,12.79
2019-04-21T02:07:34.529Z,12.77
2019-04-21T02:08:34.531Z,12.79
2019-04-21T02:09:35.644Z,12.77
2019-04-21T02:10:41.499Z,12.71
2019-04-21T02:11:37.547Z,12.72
2019-04-21T02:12:40.665Z,12.65
2019-04-21T02:13:35.142Z,12.60
2019-04-21T02:14:41.551Z,12.65
2019-04-21T02:15:41.995Z,12.54
2019-04-21T02:16:37.350Z,12.72
2019-04-21T02:17:36.338Z,12.54
2019-04-21T02:18:36.453Z,12.60
2019-04-21T02:19:31.633Z,12.62
2019-04-21T02:20:26.957Z,12.60
2019-04-21T02:21:28.694Z,12.62
2019-04-21T02:22:56.092Z,12.53
2019-04-21T02:23:39.629Z,12.56
2019-04-21T02:24:42.265Z,12.60
2019-04-21T02:25:38.471Z,12.52
2019-04-21T02:26:37.719Z,12.53
2019-04-21T02:27:37.743Z,12.53
2019-04-21T02:28:44.046Z,12.53
2019-04-21T02:29:40.902Z,12.42
2019-04-21T02:31:06.091Z,12.38
2019-04-21T02:32:01.911Z,12.49
2019-04-21T02:32:53.424Z,12.45
2019-04-21T02:34:57.476Z,12.32
2019-04-21T02:39:00.678Z,12.20
2019-04-21T02:39:48.973Z,12.20
2019-04-21T02:40:47.791Z,12.24
2019-04-21T02:43:03.137Z,12.17
2019-04-21T02:43:50.105Z,12.19
2019-04-21T02:45:47.195Z,12.14
2019-04-21T02:46:42.006Z,12.20
2019-04-21T02:47:57.256Z,12.17
2019-04-21T02:48:55.543Z,12.12
2019-04-21T02:50:47.114Z,12.16
2019-04-21T02:51:56.831Z,12.14
2019-04-21T02:52:43.759Z,12.09
2019-04-21T02:54:01.978Z,12.09
2019-04-21T02:55:44.217Z,12.05
2019-04-21T02:59:02.308Z,11.98
2019-04-21T02:59:50.399Z,11.98
2019-04-21T03:00:46.635Z,12.01
2019-04-21T03:01:49.047Z,11.96
2019-04-21T03:02:52.589Z,12.01
2019-04-21T03:03:50.584Z,11.96
2019-04-21T03:05:01.761Z,11.96
2019-04-21T03:05:48.827Z,11.98
2019-04-21T03:07:52.207Z,11.94
2019-04-21T03:08:54.302Z,11.95
2019-04-21T03:10:53.692Z,11.99
2019-04-21T03:11:52.172Z,11.96
2019-04-21T03:13:05.686Z,12.05
2019-04-21T03:13:47.157Z,11.98
2019-04-21T03:14:55.593Z,11.90
2019-04-21T03:15:53.251Z,11.85
2019-04-21T03:16:55.558Z,11.79
2019-04-21T03:18:52.488Z,11.73
2019-04-21T03:20:45.941Z,11.64
2019-04-21T03:21:50.644Z,11.58
2019-04-21T03:22:42.347Z,11.57
2019-04-21T03:23:53.529Z,11.58
2019-04-21T03:25:23.394Z,11.58
2019-04-21T03:25:51.951Z,11.61
2019-04-21T03:27:01.037Z,11.51
2019-04-21T03:28:49.435Z,11.54
2019-04-21T03:29:52.597Z,11.58
2019-04-21T03:31:14.024Z,11.58
2019-04-21T03:35:15.221Z,11.52
2019-04-21T03:38:51.071Z,11.55
2019-04-21T03:39:50.603Z,11.40
2019-04-21T03:40:41.000Z,11.39
2019-04-21T03:42:00.327Z,11.44
2019-04-21T03:43:54.669Z,11.42
2019-04-21T03:46:47.417Z,11.47
2019-04-21T03:47:43.092Z,11.44
2019-04-21T03:48:52.584Z,11.47
2019-04-21T03:50:52.457Z,11.46
2019-04-21T03:51:50.512Z,11.51
2019-04-21T03:54:53.913Z,11.47
2019-04-21T03:55:53.140Z,11.54
2019-04-21T03:57:01.443Z,11.52
2019-04-21T03:59:45.320Z,11.39
2019-04-21T04:01:51.060Z,11.44
2019-04-21T04:02:55.157Z,11.39
2019-04-21T04:04:49.676Z,11.44
2019-04-21T04:05:59.494Z,11.42
2019-04-21T04:08:59.009Z,11.42
2019-04-21T04:10:51.890Z,11.33
2019-04-21T04:11:53.205Z,11.29
2019-04-21T04:15:18.291Z,11.33
2019-04-21T04:17:40.815Z,11.36
2019-04-21T04:19:44.691Z,11.27
2019-04-21T04:20:48.030Z,11.29
2019-04-21T04:22:04.330Z,11.32
2019-04-21T04:22:52.580Z,11.35
2019-04-21T04:24:49.954Z,11.33
2019-04-21T04:25:59.087Z,11.27
2019-04-21T04:26:53.490Z,11.28
2019-04-21T04:29:00.512Z,11.25
2019-04-21T04:30:45.542Z,11.17
2019-04-21T04:32:41.988Z,11.09
2019-04-21T04:34:10.011Z,11.25
2019-04-21T04:34:58.854Z,11.21
2019-04-21T04:37:03.475Z,11.25
2019-04-21T04:39:53.468Z,11.15
2019-04-21T04:40:46.943Z,11.22
2019-04-21T04:41:53.328Z,11.15
2019-04-21T04:43:09.732Z,11.09
2019-04-21T04:47:56.567Z,11.15
2019-04-21T04:50:49.389Z,11.07
2019-04-21T04:52:45.737Z,11.04
2019-04-21T04:53:48.794Z,11.09
2019-04-21T04:54:55.106Z,11.09
2019-04-21T04:55:47.818Z,11.10
2019-04-21T04:56:51.256Z,11.09
2019-04-21T04:57:54.591Z,11.10
2019-04-21T05:00:01.761Z,11.07
2019-04-21T05:05:48.711Z,11.06
2019-04-21T05:07:52.193Z,11.06
2019-04-21T05:09:46.941Z,11.07
2019-04-21T05:10:57.388Z,11.06
2019-04-21T05:11:50.899Z,11.09
2019-04-21T05:12:43.783Z,11.09
2019-04-21T05:13:55.331Z,11.11
2019-04-21T05:14:48.383Z,11.09
2019-04-21T05:15:53.608Z,11.11
2019-04-21T05:16:46.799Z,11.11
2019-04-21T05:17:49.164Z,11.22
2019-04-21T05:18:54.339Z,11.18
2019-04-21T05:19:57.413Z,11.19
2019-04-21T05:20:52.326Z,11.17
2019-04-21T05:21:38.697Z,11.19
2019-04-21T05:22:42.684Z,11.22
2019-04-21T05:23:38.862Z,11.29
2019-04-21T05:24:33.835Z,11.21
2019-04-21T05:25:33.926Z,11.24
2019-04-21T05:26:36.076Z,11.29
2019-04-21T05:27:29.465Z,11.35
2019-04-21T05:28:35.540Z,11.35
2019-04-21T05:29:38.850Z,11.37
2019-04-21T05:30:40.380Z,11.32
2019-04-21T05:31:38.834Z,11.46
2019-04-21T05:32:41.755Z,11.54
2019-04-21T05:33:38.098Z,11.49
2019-04-21T05:34:35.948Z,11.46
2019-04-21T05:35:43.821Z,11.46
2019-04-21T05:36:37.946Z,11.44
2019-04-21T05:37:36.925Z,11.52
2019-04-21T05:38:33.350Z,11.51
2019-04-21T05:39:36.227Z,11.47
2019-04-21T05:40:31.835Z,11.55
2019-04-21T05:41:26.191Z,11.64
2019-04-21T05:42:36.803Z,11.55
2019-04-21T05:43:39.105Z,11.55
2019-04-21T05:44:35.467Z,11.78
2019-04-21T05:45:40.981Z,11.85
2019-04-21T05:46:40.793Z,11.86
2019-04-21T05:47:40.110Z,11.85
2019-04-21T05:48:39.651Z,11.90
2019-04-21T05:49:36.324Z,11.98
2019-04-21T05:50:34.953Z,11.85
2019-04-21T05:51:37.210Z,11.82
2019-04-21T05:52:37.544Z,11.98
2019-04-21T05:53:39.380Z,11.99
2019-04-21T05:54:48.572Z,12.02
2019-04-21T05:55:46.029Z,12.02
2019-04-21T05:56:45.707Z,12.07
2019-04-21T05:57:42.581Z,12.23
2019-04-21T05:58:40.839Z,12.27
2019-04-21T05:59:47.970Z,12.38
2019-04-21T06:00:59.740Z,12.47
2019-04-21T06:01:46.435Z,12.57
2019-04-21T06:02:40.352Z,12.62
2019-04-21T06:03:44.246Z,12.62
2019-04-21T06:04:56.600Z,12.60
2019-04-21T06:06:05.406Z,12.53
2019-04-21T06:06:39.501Z,12.71
2019-04-21T06:07:42.852Z,12.64
2019-04-21T06:08:42.235Z,12.59
2019-04-21T06:09:49.003Z,12.65
2019-04-21T06:10:44.611Z,12.67
2019-04-21T06:11:37.815Z,12.65
2019-04-21T06:12:44.955Z,12.71
2019-04-21T06:14:43.741Z,12.74
2019-04-21T06:15:48.406Z,12.78
2019-04-21T06:17:44.458Z,12.77
2019-04-21T06:19:43.468Z,12.89
2019-04-21T06:20:44.798Z,12.87
2019-04-21T06:21:38.606Z,12.89
2019-04-21T06:22:39.753Z,12.79
2019-04-21T06:23:42.243Z,12.87
2019-04-21T06:25:08.264Z,12.89
2019-04-21T06:26:53.856Z,13.03
2019-04-21T06:27:37.716Z,13.10
2019-04-21T06:29:44.180Z,13.12
2019-04-21T06:30:57.998Z,13.25
2019-04-21T06:32:47.209Z,13.38
2019-04-21T06:33:44.837Z,13.42
2019-04-21T06:35:02.752Z,13.44
2019-04-21T06:36:07.747Z,13.46
2019-04-21T06:36:43.330Z,13.45
2019-04-21T06:38:54.397Z,13.48
2019-04-21T06:39:54.115Z,13.62
2019-04-21T06:40:46.110Z,13.60
2019-04-21T06:41:55.678Z,13.62
2019-04-21T06:42:40.231Z,13.69
2019-04-21T06:43:48.160Z,13.71
2019-04-21T06:44:48.346Z,13.79
2019-04-21T06:45:51.115Z,13.85
2019-04-21T06:46:48.880Z,13.89
2019-04-21T06:47:47.781Z,13.85
2019-04-21T06:48:42.739Z,13.92
2019-04-21T06:49:41.082Z,13.99
2019-04-21T06:50:50.398Z,14.06
2019-04-21T06:51:38.956Z,14.04
2019-04-21T06:52:53.865Z,14.10
2019-04-21T06:53:44.631Z,14.15
2019-04-21T06:54:44.410Z,14.28
2019-04-21T06:55:36.983Z,14.22
2019-04-21T06:56:49.164Z,14.21
2019-04-21T06:57:39.001Z,14.32
2019-04-21T06:58:35.963Z,14.28
2019-04-21T06:59:40.256Z,14.32
2019-04-21T07:00:38.554Z,14.35
2019-04-21T07:01:46.378Z,14.36
2019-04-21T07:03:44.027Z,14.51
2019-04-21T07:03:48.671Z,14.50
2019-04-21T07:04:48.749Z,14.62
2019-04-21T07:05:40.978Z,14.65
2019-04-21T07:06:52.020Z,14.61
2019-04-21T07:07:43.291Z,14.60
2019-04-21T07:08:44.656Z,14.58
2019-04-21T07:09:36.426Z,14.68
2019-04-21T07:10:37.054Z,14.75
2019-04-21T07:11:39.357Z,14.68
2019-04-21T07:12:38.993Z,14.80
2019-04-21T07:13:36.592Z,14.89
2019-04-21T07:15:46.326Z,15.03
2019-04-21T07:16:44.915Z,15.02
2019-04-21T07:17:38.914Z,15.03
2019-04-21T07:18:42.840Z,15.01
2019-04-21T07:19:48.397Z,15.01
2019-04-21T07:20:43.316Z,15.10
2019-04-21T07:22:44.169Z,15.13
2019-04-21T07:23:50.210Z,15.19
2019-04-21T07:24:56.037Z,15.19
2019-04-21T07:25:39.094Z,15.28
2019-04-21T07:26:42.711Z,15.35
2019-04-21T07:27:41.514Z,15.29
2019-04-21T07:28:42.975Z,15.35
2019-04-21T07:29:56.552Z,15.34
2019-04-21T07:30:44.223Z,15.41
2019-04-21T07:31:47.110Z,15.44
2019-04-21T07:32:45.999Z,15.47
2019-04-21T07:34:38.261Z,15.60
2019-04-21T07:35:37.476Z,15.72
2019-04-21T07:37:46.104Z,15.76
2019-04-21T07:38:41.066Z,15.69
2019-04-21T07:39:39.089Z,15.74
2019-04-21T07:40:36.492Z,15.72
2019-04-21T07:41:40.048Z,15.74
2019-04-21T07:42:35.602Z,15.80
2019-04-21T07:43:35.450Z,15.75
2019-04-21T07:44:35.221Z,15.75
2019-04-21T07:45:38.108Z,15.87
2019-04-21T07:46:29.002Z,15.93
2019-04-21T07:47:39.535Z,16.08
2019-04-21T07:48:38.090Z,16.01
2019-04-21T07:49:44.617Z,16.11
2019-04-21T07:50:38.823Z,16.24
2019-04-21T07:51:47.960Z,16.35
2019-04-21T07:52:42.938Z,16.39
2019-04-21T07:53:42.367Z,16.41
2019-04-21T07:54:44.801Z,16.46
2019-04-21T07:56:25.541Z,16.56
2019-04-21T07:57:36.862Z,16.50
2019-04-21T07:58:47.683Z,16.56
2019-04-21T07:59:52.303Z,16.61
2019-04-21T08:01:00.960Z,16.63
2019-04-21T08:01:40.085Z,16.66
2019-04-21T08:02:47.674Z,16.73
2019-04-21T08:03:38.945Z,16.70
2019-04-21T08:05:45.842Z,16.76
2019-04-21T08:06:40.298Z,16.81
2019-04-21T08:07:48.008Z,16.85
2019-04-21T08:08:44.853Z,16.82
2019-04-21T08:09:42.312Z,16.83
2019-04-21T08:10:37.781Z,16.98
2019-04-21T08:11:36.675Z,16.89
2019-04-21T08:12:35.912Z,16.98
2019-04-21T08:13:52.993Z,17.01
2019-04-21T08:14:53.544Z,17.07
2019-04-21T08:15:39.967Z,17.21
2019-04-21T08:16:42.100Z,17.25
2019-04-21T08:17:41.360Z,17.33
2019-04-21T08:18:39.499Z,17.31
2019-04-21T08:19:35.951Z,17.37
2019-04-21T08:20:34.895Z,17.40
2019-04-21T08:21:45.896Z,17.36
2019-04-21T08:22:41.312Z,17.44
2019-04-21T08:23:37.014Z,17.41
2019-04-21T08:24:46.754Z,17.48
2019-04-21T08:25:47.211Z,17.56
2019-04-21T08:26:58.581Z,17.63
2019-04-21T08:27:41.774Z,17.62
2019-04-21T08:28:39.142Z,17.70
2019-04-21T08:29:44.637Z,17.74
2019-04-21T08:30:36.254Z,17.74
2019-04-21T08:31:50.019Z,17.78
2019-04-21T08:33:02.308Z,17.87
2019-04-21T08:34:43.167Z,17.82
2019-04-21T08:36:41.776Z,17.87
2019-04-21T08:37:41.778Z,17.90
2019-04-21T08:38:41.728Z,17.93
2019-04-21T08:39:50.998Z,18.03
2019-04-21T08:40:59.022Z,18.11
2019-04-21T08:41:40.805Z,18.14
2019-04-21T08:42:40.018Z,18.15
2019-04-21T08:43:42.753Z,18.12
2019-04-21T08:44:40.449Z,18.15
2019-04-21T08:45:45.269Z,18.25
2019-04-21T08:46:44.899Z,18.23
2019-04-21T08:47:39.642Z,18.29
2019-04-21T08:48:46.600Z,18.37
2019-04-21T08:49:41.471Z,18.41
2019-04-21T08:50:40.069Z,18.41
2019-04-21T08:51:40.393Z,18.52
2019-04-21T08:52:49.356Z,18.58
2019-04-21T08:53:45.160Z,18.54
2019-04-21T08:54:43.978Z,18.66
2019-04-21T08:55:39.980Z,18.76
2019-04-21T08:56:45.333Z,18.65
2019-04-21T08:57:52.662Z,18.78
2019-04-21T08:58:41.533Z,18.78
2019-04-21T08:59:36.118Z,18.85
2019-04-21T09:00:38.934Z,18.87
2019-04-21T09:01:43.061Z,18.99
2019-04-21T09:02:40.381Z,19.02
2019-04-21T09:03:43.003Z,19.10
2019-04-21T09:04:33.687Z,19.18
2019-04-21T09:05:36.700Z,19.16
2019-04-21T09:06:54.175Z,19.11
2019-04-21T09:07:39.418Z,19.23
2019-04-21T09:08:44.440Z,19.19
2019-04-21T09:09:41.643Z,19.18
2019-04-21T09:10:39.898Z,19.22
2019-04-21T09:11:37.626Z,19.33
2019-04-21T09:12:41.804Z,19.36
2019-04-21T09:13:38.404Z,19.39
2019-04-21T09:14:39.568Z,19.41
2019-04-21T09:15:34.983Z,19.44
2019-04-21T09:16:35.171Z,19.48
2019-04-21T09:17:33.063Z,19.55
2019-04-21T09:18:32.521Z,19.61
2019-04-21T09:20:46.106Z,19.68
2019-04-21T09:21:39.414Z,19.78
2019-04-21T09:22:35.742Z,19.81
2019-04-21T09:23:39.222Z,19.94
2019-04-21T09:24:41.479Z,19.91
2019-04-21T09:25:40.739Z,20.01
2019-04-21T09:26:34.371Z,19.94
2019-04-21T09:27:39.477Z,19.96
2019-04-21T09:28:36.772Z,19.98
2019-04-21T09:29:32.408Z,20.01
2019-04-21T09:30:21.932Z,20.01
2019-04-21T09:31:27.826Z,19.95
2019-04-21T09:32:25.040Z,20.10
2019-04-21T09:33:20.848Z,20.14
2019-04-21T09:34:25.067Z,20.24
2019-04-21T09:35:22.258Z,20.36
2019-04-21T09:36:23.339Z,20.36
2019-04-21T09:37:35.320Z,20.42
2019-04-21T09:38:29.960Z,20.47
2019-04-21T09:39:24.089Z,20.47
2019-04-21T09:40:29.088Z,20.48
2019-04-21T09:41:24.072Z,20.50
2019-04-21T09:42:21.927Z,20.47
2019-04-21T09:43:34.285Z,20.41
2019-04-21T09:44:27.607Z,20.58
2019-04-21T09:45:22.542Z,20.57
2019-04-21T09:46:20.922Z,20.72
2019-04-21T09:47:24.745Z,20.76
2019-04-21T09:48:22.445Z,20.72
2019-04-21T09:49:23.859Z,20.80
2019-04-21T09:50:22.095Z,20.89
2019-04-21T09:51:20.729Z,20.92
2019-04-21T09:52:25.785Z,20.99
2019-04-21T09:53:28.493Z,21.12
2019-04-21T09:54:24.813Z,21.19
2019-04-21T09:55:24.604Z,21.10
2019-04-21T09:56:31.451Z,21.07
2019-04-21T09:57:31.368Z,20.99
2019-04-21T09:58:29.325Z,21.16
2019-04-21T09:59:28.021Z,21.27
2019-04-21T10:00:25.338Z,21.34
2019-04-21T10:01:28.782Z,21.46
2019-04-21T10:02:32.719Z,21.46
2019-04-21T10:03:21.773Z,21.37
2019-04-21T10:04:20.938Z,21.42
2019-04-21T10:05:21.445Z,21.34
2019-04-21T10:06:20.995Z,21.38
2019-04-21T10:07:28.197Z,21.40
2019-04-21T10:08:20.990Z,21.49
2019-04-21T10:09:21.788Z,21.53
2019-04-21T10:10:21.019Z,21.58
2019-04-21T10:11:22.626Z,21.59
2019-04-21T10:12:21.047Z,21.69
2019-04-21T10:13:21.061Z,21.68
2019-04-21T10:14:22.043Z,21.65
2019-04-21T10:15:23.601Z,21.64
2019-04-21T10:16:21.916Z,21.67
2019-04-21T10:17:21.730Z,21.65
2019-04-21T10:18:21.695Z,21.65
2019-04-21T10:19:21.713Z,21.65
2019-04-21T10:20:22.271Z,21.67
2019-04-21T10:21:22.032Z,21.74
2019-04-21T10:22:21.236Z,21.72
2019-04-21T10:23:21.259Z,21.80
2019-04-21T10:24:22.204Z,21.79
2019-04-21T10:25:21.246Z,21.91
2019-04-21T10:26:22.233Z,21.96
2019-04-21T10:27:21.278Z,22.02
2019-04-21T10:28:21.294Z,22.00
2019-04-21T10:29:25.768Z,22.07
2019-04-21T10:30:22.396Z,22.06
2019-04-21T10:31:22.678Z,22.14
2019-04-21T10:32:23.515Z,22.12
2019-04-21T10:33:22.025Z,22.15
2019-04-21T10:34:21.386Z,22.07
2019-04-21T10:35:23.036Z,21.99
2019-04-21T10:36:22.710Z,21.96
2019-04-21T10:37:33.986Z,22.06
2019-04-21T10:38:30.205Z,22.15
2019-04-21T10:39:21.788Z,22.22
2019-04-21T10:40:21.493Z,21.99
2019-04-21T10:41:21.633Z,22.17
2019-04-21T10:42:21.532Z,22.05
2019-04-21T10:43:23.696Z,21.99
2019-04-21T10:44:23.043Z,22.02
2019-04-21T10:45:21.567Z,22.15
2019-04-21T10:46:22.469Z,22.12
2019-04-21T10:47:22.796Z,22.25
2019-04-21T10:48:23.008Z,22.36
2019-04-21T10:49:22.548Z,22.35
2019-04-21T10:50:22.626Z,22.49
2019-04-21T10:51:21.648Z,22.62
2019-04-21T10:52:22.833Z,22.47
2019-04-21T10:53:22.932Z,22.52
2019-04-21T10:54:21.930Z,22.47
2019-04-21T10:55:41.801Z,22.57
2019-04-21T10:56:28.786Z,22.47
2019-04-21T10:57:22.229Z,22.55
2019-04-21T10:58:22.530Z,22.55
2019-04-21T10:59:23.106Z,22.36
2019-04-21T11:00:21.795Z,22.40
2019-04-21T11:01:23.063Z,22.49
2019-04-21T11:02:23.025Z,22.45
2019-04-21T11:03:22.762Z,22.55
2019-04-21T11:04:29.028Z,22.57
2019-04-21T11:05:22.726Z,22.54
2019-04-21T11:06:21.877Z,22.55
2019-04-21T11:07:25.617Z,22.49
2019-04-21T11:08:28.392Z,22.61
2019-04-21T11:09:22.063Z,22.70
2019-04-21T11:10:22.305Z,22.65
2019-04-21T11:11:21.954Z,22.55
2019-04-21T11:12:21.972Z,22.65
2019-04-21T11:13:23.005Z,22.58
2019-04-21T11:14:23.141Z,22.70
2019-04-21T11:15:23.227Z,22.75
2019-04-21T11:16:23.383Z,22.79
2019-04-21T11:17:22.047Z,22.83
2019-04-21T11:18:22.066Z,22.95
2019-04-21T11:19:22.188Z,22.86
2019-04-21T11:20:22.811Z,22.97
2019-04-21T11:22:23.064Z,23.16
2019-04-21T11:23:22.459Z,23.23
2019-04-21T11:24:23.026Z,22.97
2019-04-21T11:25:22.194Z,22.90
2019-04-21T11:26:22.205Z,22.98
2019-04-21T11:27:22.626Z,23.01
2019-04-21T11:28:22.889Z,23.01
2019-04-21T11:29:23.303Z,23.12
2019-04-21T11:30:23.365Z,23.16
2019-04-21T11:31:22.917Z,23.15
2019-04-21T11:32:23.161Z,23.00
2019-04-21T11:33:22.795Z,23.07
2019-04-21T11:34:23.098Z,23.04
2019-04-21T11:35:23.390Z,23.23
2019-04-21T11:36:22.341Z,23.31
2019-04-21T11:37:22.356Z,23.39
2019-04-21T11:38:24.992Z,23.40
2019-04-21T11:39:35.310Z,23.47
2019-04-21T11:41:23.870Z,23.51
2019-04-21T11:42:23.731Z,23.53
2019-04-21T11:43:22.449Z,23.55
2019-04-21T11:44:24.661Z,23.51
2019-04-21T11:45:22.482Z,23.46
2019-04-21T11:46:22.665Z,23.40
2019-04-21T11:47:22.763Z,23.53
2019-04-21T11:48:24.104Z,23.60
2019-04-21T11:49:22.552Z,23.54
2019-04-21T11:50:23.239Z,23.73
2019-04-21T11:51:22.858Z,23.53
2019-04-21T11:52:22.871Z,23.55
2019-04-21T11:53:23.144Z,23.66
2019-04-21T11:54:22.658Z,23.51
2019-04-21T11:55:22.900Z,23.61
2019-04-21T11:56:23.056Z,23.66
2019-04-21T11:57:27.623Z,23.58
2019-04-21T11:58:23.662Z,23.66
2019-04-21T11:59:23.819Z,23.61
2019-04-21T12:00:23.894Z,23.58
2019-04-21T12:01:23.486Z,23.50
2019-04-21T12:02:23.570Z,23.61
2019-04-21T12:03:23.962Z,23.58
2019-04-21T12:04:23.461Z,23.78
2019-04-21T12:05:23.667Z,23.84
2019-04-21T12:06:28.643Z,23.88
2019-04-21T12:07:22.982Z,23.87
2019-04-21T12:08:29.979Z,23.72
2019-04-21T12:09:23.219Z,23.53
2019-04-21T12:10:23.755Z,23.65
2019-04-21T12:11:23.250Z,23.63
2019-04-21T12:12:23.284Z,23.72
2019-04-21T12:13:22.921Z,23.83
2019-04-21T12:14:23.820Z,23.95
2019-04-21T12:15:23.018Z,23.97
2019-04-21T12:16:23.367Z,24.09
2019-04-21T12:17:23.707Z,24.02
2019-04-21T12:18:26.338Z,23.97
2019-04-21T12:19:23.010Z,23.90
2019-04-21T12:20:24.326Z,23.73
2019-04-21T12:21:23.404Z,23.79
2019-04-21T12:22:28.140Z,23.80
2019-04-21T12:23:23.076Z,23.69
2019-04-21T12:24:23.097Z,23.70
2019-04-21T12:25:23.114Z,23.85
2019-04-21T12:26:24.163Z,23.98
2019-04-21T12:27:23.139Z,24.10
2019-04-21T12:28:23.882Z,24.21
2019-04-21T12:29:23.172Z,24.32
2019-04-21T12:30:24.044Z,24.30
2019-04-21T12:31:23.471Z,24.39
2019-04-21T12:32:24.150Z,24.42
2019-04-21T12:33:24.361Z,24.37
2019-04-21T12:34:23.784Z,24.40
2019-04-21T12:35:23.847Z,24.55
2019-04-21T12:36:24.157Z,24.60
2019-04-21T12:37:24.658Z,24.68
2019-04-21T12:38:34.581Z,24.71
2019-04-21T12:39:23.330Z,24.68
2019-04-21T12:40:24.315Z,24.68
2019-04-21T12:41:24.614Z,24.80
2019-04-21T12:42:24.781Z,24.80
2019-04-21T12:43:24.352Z,24.84
2019-04-21T12:44:24.596Z,24.85
2019-04-21T12:45:24.072Z,24.83
2019-04-21T12:46:23.441Z,24.77
2019-04-21T12:47:23.866Z,24.88
2019-04-21T12:48:44.138Z,24.99
2019-04-21T12:49:23.497Z,25.03
2019-04-21T12:50:23.659Z,25.05
2019-04-21T12:51:23.954Z,25.09
2019-04-21T12:52:23.995Z,25.13
2019-04-21T12:53:23.641Z,25.08
2019-04-21T12:54:23.845Z,25.00
2019-04-21T12:55:30.562Z,25.06
2019-04-21T12:56:23.611Z,25.02
2019-04-21T12:57:23.643Z,25.06
2019-04-21T12:58:23.769Z,25.08
2019-04-21T12:59:24.597Z,25.13
2019-04-21T13:00:24.815Z,25.18
2019-04-21T13:01:24.824Z,25.32
2019-04-21T13:02:23.705Z,25.33
2019-04-21T13:03:25.181Z,25.40
2019-04-21T13:04:23.896Z,25.27
2019-04-21T13:05:23.769Z,24.98
2019-04-21T13:06:23.766Z,25.15
2019-04-21T13:07:23.783Z,25.28
2019-04-21T13:08:25.013Z,25.27
2019-04-21T13:09:24.437Z,25.21
2019-04-21T13:10:24.284Z,25.25
2019-04-21T13:11:23.848Z,25.36
2019-04-21T13:12:24.836Z,25.40
2019-04-21T13:13:24.085Z,25.47
2019-04-21T13:14:24.054Z,25.42
2019-04-21T13:15:25.258Z,25.40
2019-04-21T13:16:43.517Z,25.43
2019-04-21T13:17:23.945Z,25.28
2019-04-21T13:18:24.030Z,25.42
2019-04-21T13:19:25.003Z,25.57
2019-04-21T13:20:25.302Z,25.52
2019-04-21T13:21:24.315Z,25.57
2019-04-21T13:22:24.032Z,25.54
2019-04-21T13:23:24.945Z,25.67
2019-04-21T13:24:24.197Z,25.76
2019-04-21T13:25:24.085Z,25.80
2019-04-21T13:26:34.443Z,25.73
2019-04-21T13:27:24.787Z,25.76
2019-04-21T13:28:24.939Z,25.82
2019-04-21T13:29:24.170Z,25.76
2019-04-21T13:30:24.242Z,25.75
2019-04-21T13:31:24.540Z,25.92
2019-04-21T13:32:24.916Z,25.98
2019-04-21T13:33:25.167Z,25.79
2019-04-21T13:34:24.263Z,25.76
2019-04-21T13:35:24.329Z,25.83
2019-04-21T13:36:25.566Z,25.97
2019-04-21T13:37:25.587Z,26.15
2019-04-21T13:38:34.622Z,26.29
2019-04-21T13:39:53.685Z,25.97
2019-04-21T13:40:39.888Z,25.83
2019-04-21T13:41:36.469Z,25.85
2019-04-21T13:42:32.194Z,26.12
2019-04-21T13:44:24.486Z,26.75
2019-04-21T13:45:25.812Z,27.17
2019-04-21T13:46:24.952Z,27.41
2019-04-21T13:47:24.924Z,27.84
2019-04-21T13:48:24.505Z,28.24
2019-04-21T13:49:25.341Z,28.68
2019-04-21T13:50:25.603Z,28.90
2019-04-21T13:51:25.058Z,29.15
2019-04-21T13:52:24.785Z,29.64
2019-04-21T13:53:25.017Z,30.13
2019-04-21T13:54:25.399Z,30.75
2019-04-21T13:55:25.531Z,31.09
2019-04-21T13:56:24.791Z,31.31
2019-04-21T13:57:26.219Z,31.85
2019-04-21T13:58:26.230Z,32.04
2019-04-21T13:59:24.757Z,31.75
2019-04-21T14:00:24.784Z,31.70
2019-04-21T14:01:25.611Z,31.14
2019-04-21T14:02:24.838Z,30.69
2019-04-21T14:03:26.674Z,30.35
2019-04-21T14:04:25.302Z,30.65
2019-04-21T14:05:26.426Z,30.69
2019-04-21T14:06:24.942Z,30.19
2019-04-21T14:07:26.131Z,29.74
2019-04-21T14:08:25.359Z,29.60
2019-04-21T14:09:35.973Z,29.73
2019-04-21T14:10:25.867Z,29.36
2019-04-21T14:11:25.199Z,30.11
2019-04-21T14:12:25.397Z,30.98
2019-04-21T14:13:26.723Z,30.95
2019-04-21T14:14:26.151Z,31.32
2019-04-21T14:15:26.290Z,30.60
2019-04-21T14:16:26.532Z,30.22
2019-04-21T14:17:25.221Z,30.60
2019-04-21T14:18:25.239Z,30.65
2019-04-21T14:19:25.657Z,30.91
2019-04-21T14:20:25.465Z,30.82